sensor_id;sensor_type;location;lat;lon;timestamp;temperature;humidity
27368;DHT22;14839;48.106;11.618;2023-01-19T05:02:35;-2.30;94.60
27368;DHT22;14839;48.106;11.618;2023-01-19T05:05:01;-2.40;94.60
27368;DHT22;14839;48.106;11.618;2023-01-19T05:07:27;-2.50;94.60
27368;DHT22;14839;48.106;11.618;2023-01-19T05:09:52;-2.60;94.60
27368;DHT22;14839;48.106;11.618;2023-01-19T05:12:18;-2.60;94.60
27368;DHT22;14839;48.106;11.618;2023-01-19T05:14:44;-2.60;94.60
27368;DHT22;14839;48.106;11.618;2023-01-19T05:17:10;-2.70;94.60
27368;DHT22;14839;48.106;11.618;2023-01-19T05:19:36;-2.80;94.60
27368;DHT22;14839;48.106;11.618;2023-01-19T05:22:03;-2.80;94.60
27368;DHT22;14839;48.106;11.618;2023-01-19T05:24:29;-2.70;94.60
27368;DHT22;14839;48.106;11.618;2023-01-19T05:26:54;-2.70;94.60
27368;DHT22;14839;48.106;11.618;2023-01-19T05:29:20;-2.70;94.60
27368;DHT22;14839;48.106;11.618;2023-01-19T05:31:46;-2.70;94.60
27368;DHT22;14839;48.106;11.618;2023-01-19T05:34:12;-2.60;94.60
27368;DHT22;14839;48.106;11.618;2023-01-19T05:36:39;-2.60;94.60
27368;DHT22;14839;48.106;11.618;2023-01-19T05:39:04;-2.40;94.60
27368;DHT22;14839;48.106;11.618;2023-01-19T05:41:30;-2.40;94.60
27368;DHT22;14839;48.106;11.618;2023-01-19T05:43:55;-2.40;94.60
27368;DHT22;14839;48.106;11.618;2023-01-19T05:46:21;-2.50;94.60
27368;DHT22;14839;48.106;11.618;2023-01-19T05:48:47;-2.40;94.60
27368;DHT22;14839;48.106;11.618;2023-01-19T05:51:13;-2.50;94.60
27368;DHT22;14839;48.106;11.618;2023-01-19T05:53:39;-2.60;94.60
27368;DHT22;14839;48.106;11.618;2023-01-19T05:56:06;-2.60;94.60
27368;DHT22;14839;48.106;11.618;2023-01-19T05:58:36;-2.60;94.60
27368;DHT22;14839;48.106;11.618;2023-01-19T06:01:05;-2.70;94.60
27368;DHT22;14839;48.106;11.618;2023-01-19T06:03:33;-2.80;94.60
27368;DHT22;14839;48.106;11.618;2023-01-19T06:05:59;-2.90;94.60
27368;DHT22;14839;48.106;11.618;2023-01-19T06:08:25;-2.90;94.60
27368;DHT22;14839;48.106;11.618;2023-01-19T06:10:50;-2.90;94.60
27368;DHT22;14839;48.106;11.618;2023-01-19T06:13:16;-2.90;94.60
27368;DHT22;14839;48.106;11.618;2023-01-19T06:15:42;-2.80;94.60
27368;DHT22;14839;48.106;11.618;2023-01-19T06:18:09;-2.80;94.60
27368;DHT22;14839;48.106;11.618;2023-01-19T06:20:35;-2.70;94.60
27368;DHT22;14839;48.106;11.618;2023-01-19T06:23:01;-2.70;94.60
27368;DHT22;14839;48.106;11.618;2023-01-19T06:25:26;-2.70;94.60
27368;DHT22;14839;48.106;11.618;2023-01-19T06:27:52;-2.70;94.60
27368;DHT22;14839;48.106;11.618;2023-01-19T06:30:18;-2.70;94.60
27368;DHT22;14839;48.106;11.618;2023-01-19T06:32:43;-2.70;94.60
27368;DHT22;14839;48.106;11.618;2023-01-19T06:35:09;-2.70;94.60
27368;DHT22;14839;48.106;11.618;2023-01-19T06:37:36;-2.70;94.60
27368;DHT22;14839;48.106;11.618;2023-01-19T06:40:02;-2.70;94.60
27368;DHT22;14839;48.106;11.618;2023-01-19T06:42:27;-2.70;94.60
27368;DHT22;14839;48.106;11.618;2023-01-19T06:44:53;-2.70;94.60
27368;DHT22;14839;48.106;11.618;2023-01-19T06:47:19;-2.70;94.60
27368;DHT22;14839;48.106;11.618;2023-01-19T06:49:44;-2.70;94.60
27368;DHT22;14839;48.106;11.618;2023-01-19T06:52:13;-2.70;94.60
27368;DHT22;14839;48.106;11.618;2023-01-19T06:54:41;-2.70;94.60
27368;DHT22;14839;48.106;11.618;2023-01-19T06:57:08;-2.70;94.60
27368;DHT22;14839;48.106;11.618;2023-01-19T06:59:33;-2.60;94.60
27368;DHT22;14839;48.106;11.618;2023-01-19T07:01:59;-2.60;94.60
27368;DHT22;14839;48.106;11.618;2023-01-19T07:04:25;-2.60;94.60
27368;DHT22;14839;48.106;11.618;2023-01-19T07:06:51;-2.50;94.60
27368;DHT22;14839;48.106;11.618;2023-01-19T07:09:16;-2.40;94.60
27368;DHT22;14839;48.106;11.618;2023-01-19T07:11:44;-2.40;94.60
27368;DHT22;14839;48.106;11.618;2023-01-19T07:14:10;-2.30;94.60
27368;DHT22;14839;48.106;11.618;2023-01-19T07:16:36;-2.30;94.60
27368;DHT22;14839;48.106;11.618;2023-01-19T07:19:02;-2.20;94.60
27368;DHT22;14839;48.106;11.618;2023-01-19T07:21:28;-2.20;94.60
27368;DHT22;14839;48.106;11.618;2023-01-19T07:23:54;-2.10;94.60
27368;DHT22;14839;48.106;11.618;2023-01-19T07:26:20;-2.10;94.60
27368;DHT22;14839;48.106;11.618;2023-01-19T07:28:47;-2.10;94.60
27368;DHT22;14839;48.106;11.618;2023-01-19T07:31:13;-2.00;94.60
27368;DHT22;14839;48.106;11.618;2023-01-19T07:33:39;-2.00;94.60
27368;DHT22;14839;48.106;11.618;2023-01-19T07:36:05;-2.00;94.60
27368;DHT22;14839;48.106;11.618;2023-01-19T07:38:31;-2.00;94.60
27368;DHT22;14839;48.106;11.618;2023-01-19T07:41:05;-2.00;94.60
27368;DHT22;14839;48.106;11.618;2023-01-19T07:43:31;-2.00;94.60
27368;DHT22;14839;48.106;11.618;2023-01-19T07:45:57;-1.90;94.60
27368;DHT22;14839;48.106;11.618;2023-01-19T07:48:23;-1.90;94.60
27368;DHT22;14839;48.106;11.618;2023-01-19T07:50:49;-1.80;94.60
27368;DHT22;14839;48.106;11.618;2023-01-19T07:53:15;-1.80;94.60
27368;DHT22;14839;48.106;11.618;2023-01-19T07:55:41;-1.80;94.60
27368;DHT22;14839;48.106;11.618;2023-01-19T07:58:07;-1.70;94.60
27368;DHT22;14839;48.106;11.618;2023-01-19T08:00:34;-1.80;94.60
27368;DHT22;14839;48.106;11.618;2023-01-19T08:03:01;-1.70;94.60
27368;DHT22;14839;48.106;11.618;2023-01-19T08:05:27;-1.60;94.60
27368;DHT22;14839;48.106;11.618;2023-01-19T08:07:56;-1.50;94.60
27368;DHT22;14839;48.106;11.618;2023-01-19T08:10:23;-1.40;94.60
27368;DHT22;14839;48.106;11.618;2023-01-19T08:12:54;-1.40;94.60
27368;DHT22;14839;48.106;11.618;2023-01-19T08:15:20;-1.30;94.60
27368;DHT22;14839;48.106;11.618;2023-01-19T08:18:08;-1.20;94.60
27368;DHT22;14839;48.106;11.618;2023-01-19T08:20:36;-1.10;94.60
27368;DHT22;14839;48.106;11.618;2023-01-19T08:23:02;-1.00;94.60
27368;DHT22;14839;48.106;11.618;2023-01-19T08:25:37;-0.90;94.60
27368;DHT22;14839;48.106;11.618;2023-01-19T08:28:04;-0.90;94.60
27368;DHT22;14839;48.106;11.618;2023-01-19T08:30:30;-0.80;94.60
27368;DHT22;14839;48.106;11.618;2023-01-19T08:32:56;-0.70;94.60
27368;DHT22;14839;48.106;11.618;2023-01-19T08:35:31;-0.60;94.60
27368;DHT22;14839;48.106;11.618;2023-01-19T08:37:57;-0.50;94.60
27368;DHT22;14839;48.106;11.618;2023-01-19T08:40:29;-0.40;94.60
27368;DHT22;14839;48.106;11.618;2023-01-19T08:43:06;-0.30;94.60
27368;DHT22;14839;48.106;11.618;2023-01-19T08:45:41;-0.40;94.60
27368;DHT22;14839;48.106;11.618;2023-01-19T08:48:12;-0.20;94.60
27368;DHT22;14839;48.106;11.618;2023-01-19T08:50:38;-0.10;94.60
27368;DHT22;14839;48.106;11.618;2023-01-19T08:53:05;0.00;94.60
27368;DHT22;14839;48.106;11.618;2023-01-19T08:55:35;0.10;94.60
27368;DHT22;14839;48.106;11.618;2023-01-19T08:58:01;0.20;94.60
27368;DHT22;14839;48.106;11.618;2023-01-19T09:00:31;0.20;94.50
27368;DHT22;14839;48.106;11.618;2023-01-19T09:03:03;0.30;94.60
27368;DHT22;14839;48.106;11.618;2023-01-19T09:05:30;0.50;93.80
27368;DHT22;14839;48.106;11.618;2023-01-19T09:08:06;0.50;93.30
27368;DHT22;14839;48.106;11.618;2023-01-19T09:10:33;0.60;92.80
27368;DHT22;14839;48.106;11.618;2023-01-19T09:13:06;0.60;92.60
27368;DHT22;14839;48.106;11.618;2023-01-19T09:15:33;0.50;92.60
27368;DHT22;14839;48.106;11.618;2023-01-19T09:18:06;0.60;92.40
27368;DHT22;14839;48.106;11.618;2023-01-19T09:20:32;0.60;92.50
27368;DHT22;14839;48.106;11.618;2023-01-19T09:23:00;0.60;92.00
27368;DHT22;14839;48.106;11.618;2023-01-19T09:25:26;0.60;91.80
27368;DHT22;14839;48.106;11.618;2023-01-19T09:27:51;0.70;91.90
27368;DHT22;14839;48.106;11.618;2023-01-19T09:30:18;0.80;91.30
27368;DHT22;14839;48.106;11.618;2023-01-19T09:32:44;1.00;91.50
27368;DHT22;14839;48.106;11.618;2023-01-19T09:35:10;1.10;90.60
27368;DHT22;14839;48.106;11.618;2023-01-19T09:37:36;1.20;89.80
27368;DHT22;14839;48.106;11.618;2023-01-19T09:40:02;1.40;89.20
27368;DHT22;14839;48.106;11.618;2023-01-19T09:42:41;1.40;88.60
27368;DHT22;14839;48.106;11.618;2023-01-19T09:45:15;1.50;89.20
27368;DHT22;14839;48.106;11.618;2023-01-19T09:47:43;1.50;88.70
27368;DHT22;14839;48.106;11.618;2023-01-19T09:50:23;1.80;88.30
27368;DHT22;14839;48.106;11.618;2023-01-19T09:52:56;1.70;88.00
27368;DHT22;14839;48.106;11.618;2023-01-19T09:55:26;1.70;86.80
27368;DHT22;14839;48.106;11.618;2023-01-19T09:57:52;1.80;86.90
27368;DHT22;14839;48.106;11.618;2023-01-19T10:00:19;1.90;87.20
27368;DHT22;14839;48.106;11.618;2023-01-19T10:08:07;2.00;85.70
27368;DHT22;14839;48.106;11.618;2023-01-19T10:10:38;2.10;85.30
27368;DHT22;14839;48.106;11.618;2023-01-19T10:13:46;2.30;85.00
27368;DHT22;14839;48.106;11.618;2023-01-19T10:18:49;1.80;84.40
27368;DHT22;14839;48.106;11.618;2023-01-19T10:21:20;1.60;85.40
27368;DHT22;14839;48.106;11.618;2023-01-19T10:23:51;1.60;85.90
27368;DHT22;14839;48.106;11.618;2023-01-19T10:26:26;1.70;86.00
27368;DHT22;14839;48.106;11.618;2023-01-19T10:29:06;1.80;86.00
27368;DHT22;14839;48.106;11.618;2023-01-19T10:31:33;2.00;84.70
27368;DHT22;14839;48.106;11.618;2023-01-19T10:34:00;2.10;84.70
27368;DHT22;14839;48.106;11.618;2023-01-19T10:36:34;2.00;83.90
27368;DHT22;14839;48.106;11.618;2023-01-19T10:39:00;2.20;84.50
27368;DHT22;14839;48.106;11.618;2023-01-19T10:44:06;2.10;84.20
27368;DHT22;14839;48.106;11.618;2023-01-19T10:46:36;2.20;83.50
27368;DHT22;14839;48.106;11.618;2023-01-19T10:49:02;2.10;83.60
27368;DHT22;14839;48.106;11.618;2023-01-19T10:51:29;2.00;84.80
27368;DHT22;14839;48.106;11.618;2023-01-19T10:54:04;2.20;84.20
27368;DHT22;14839;48.106;11.618;2023-01-19T10:56:34;2.50;83.80
27368;DHT22;14839;48.106;11.618;2023-01-19T10:59:03;2.50;82.60
27368;DHT22;14839;48.106;11.618;2023-01-19T11:01:30;2.60;81.80
27368;DHT22;14839;48.106;11.618;2023-01-19T11:04:00;2.60;81.70
27368;DHT22;14839;48.106;11.618;2023-01-19T11:06:31;2.50;80.50
27368;DHT22;14839;48.106;11.618;2023-01-19T11:09:29;2.70;80.60
27368;DHT22;14839;48.106;11.618;2023-01-19T11:11:55;2.60;79.90
27368;DHT22;14839;48.106;11.618;2023-01-19T11:14:22;2.70;79.30
27368;DHT22;14839;48.106;11.618;2023-01-19T11:16:54;2.60;78.40
27368;DHT22;14839;48.106;11.618;2023-01-19T11:19:31;2.50;78.80
27368;DHT22;14839;48.106;11.618;2023-01-19T11:22:17;2.40;79.00
27368;DHT22;14839;48.106;11.618;2023-01-19T11:24:47;2.20;79.60
27368;DHT22;14839;48.106;11.618;2023-01-19T11:27:16;2.20;80.30
27368;DHT22;14839;48.106;11.618;2023-01-19T11:29:49;2.20;80.00
27368;DHT22;14839;48.106;11.618;2023-01-19T11:32:22;2.20;79.10
27368;DHT22;14839;48.106;11.618;2023-01-19T11:34:51;2.20;79.40
27368;DHT22;14839;48.106;11.618;2023-01-19T11:39:52;2.00;80.20
27368;DHT22;14839;48.106;11.618;2023-01-19T11:42:19;2.10;80.00
27368;DHT22;14839;48.106;11.618;2023-01-19T11:47:37;2.30;80.90
27368;DHT22;14839;48.106;11.618;2023-01-19T11:50:14;2.10;78.50
27368;DHT22;14839;48.106;11.618;2023-01-19T11:52:47;2.20;79.30
27368;DHT22;14839;48.106;11.618;2023-01-19T11:55:40;2.20;78.20
27368;DHT22;14839;48.106;11.618;2023-01-19T11:58:15;2.20;77.30
27368;DHT22;14839;48.106;11.618;2023-01-19T12:00:52;2.30;77.90
27368;DHT22;14839;48.106;11.618;2023-01-19T12:03:29;2.50;78.80
27368;DHT22;14839;48.106;11.618;2023-01-19T12:06:14;2.60;77.60
27368;DHT22;14839;48.106;11.618;2023-01-19T12:08:45;2.60;77.30
27368;DHT22;14839;48.106;11.618;2023-01-19T12:11:16;2.60;76.60
27368;DHT22;14839;48.106;11.618;2023-01-19T12:13:44;2.50;76.30
27368;DHT22;14839;48.106;11.618;2023-01-19T12:16:19;2.40;77.80
27368;DHT22;14839;48.106;11.618;2023-01-19T12:21:22;2.40;78.40
27368;DHT22;14839;48.106;11.618;2023-01-19T12:26:43;2.30;77.30
27368;DHT22;14839;48.106;11.618;2023-01-19T12:29:17;2.40;76.70
27368;DHT22;14839;48.106;11.618;2023-01-19T12:31:42;2.30;76.40
27368;DHT22;14839;48.106;11.618;2023-01-19T12:34:27;2.30;78.10
27368;DHT22;14839;48.106;11.618;2023-01-19T12:37:01;2.20;77.50
27368;DHT22;14839;48.106;11.618;2023-01-19T12:39:28;2.20;77.00
27368;DHT22;14839;48.106;11.618;2023-01-19T12:42:14;2.10;76.40
27368;DHT22;14839;48.106;11.618;2023-01-19T12:44:42;2.20;78.10
27368;DHT22;14839;48.106;11.618;2023-01-19T12:49:47;2.00;80.30
27368;DHT22;14839;48.106;11.618;2023-01-19T12:52:30;2.00;80.00
27368;DHT22;14839;48.106;11.618;2023-01-19T13:00:29;2.30;80.20
27368;DHT22;14839;48.106;11.618;2023-01-19T13:03:02;2.20;79.10
27368;DHT22;14839;48.106;11.618;2023-01-19T13:13:43;2.20;79.40
27368;DHT22;14839;48.106;11.618;2023-01-19T13:18:54;2.30;80.30
27368;DHT22;14839;48.106;11.618;2023-01-19T13:21:35;2.20;79.40
27368;DHT22;14839;48.106;11.618;2023-01-19T13:24:09;2.10;79.70
27368;DHT22;14839;48.106;11.618;2023-01-19T13:26:53;2.10;80.00
27368;DHT22;14839;48.106;11.618;2023-01-19T13:29:38;2.00;79.90
27368;DHT22;14839;48.106;11.618;2023-01-19T13:32:12;1.90;80.50
27368;DHT22;14839;48.106;11.618;2023-01-19T13:34:44;1.90;80.00
27368;DHT22;14839;48.106;11.618;2023-01-19T13:37:22;1.90;80.00
27368;DHT22;14839;48.106;11.618;2023-01-19T13:39:51;2.00;78.70
27368;DHT22;14839;48.106;11.618;2023-01-19T13:42:27;2.00;78.80
27368;DHT22;14839;48.106;11.618;2023-01-19T13:45:01;2.00;78.50
27368;DHT22;14839;48.106;11.618;2023-01-19T13:47:42;1.90;79.10
27368;DHT22;14839;48.106;11.618;2023-01-19T13:50:31;2.00;79.40
27368;DHT22;14839;48.106;11.618;2023-01-19T13:52:57;1.90;81.10
27368;DHT22;14839;48.106;11.618;2023-01-19T13:55:25;2.00;80.80
27368;DHT22;14839;48.106;11.618;2023-01-19T13:57:52;1.80;79.30
27368;DHT22;14839;48.106;11.618;2023-01-19T14:00:23;1.90;80.20
27368;DHT22;14839;48.106;11.618;2023-01-19T14:03:15;1.90;79.10
27368;DHT22;14839;48.106;11.618;2023-01-19T14:05:49;1.80;80.20
27368;DHT22;14839;48.106;11.618;2023-01-19T14:08:15;1.80;80.60
27368;DHT22;14839;48.106;11.618;2023-01-19T14:13:19;2.00;81.80
27368;DHT22;14839;48.106;11.618;2023-01-19T14:15:46;1.90;80.60
27368;DHT22;14839;48.106;11.618;2023-01-19T14:20:58;1.70;82.30
27368;DHT22;14839;48.106;11.618;2023-01-19T14:23:46;1.70;81.80
27368;DHT22;14839;48.106;11.618;2023-01-19T14:34:37;1.60;81.50
27368;DHT22;14839;48.106;11.618;2023-01-19T14:37:33;1.60;82.40
27368;DHT22;14839;48.106;11.618;2023-01-19T14:45:27;1.50;81.20
27368;DHT22;14839;48.106;11.618;2023-01-19T14:48:13;1.50;78.70
27368;DHT22;14839;48.106;11.618;2023-01-19T14:50:40;1.50;79.90
27368;DHT22;14839;48.106;11.618;2023-01-19T14:53:21;1.60;80.60
27368;DHT22;14839;48.106;11.618;2023-01-19T14:56:00;1.60;79.30
27368;DHT22;14839;48.106;11.618;2023-01-19T14:58:30;1.50;79.90
27368;DHT22;14839;48.106;11.618;2023-01-19T15:00:56;1.50;79.60
27368;DHT22;14839;48.106;11.618;2023-01-19T15:03:23;1.40;80.00
27368;DHT22;14839;48.106;11.618;2023-01-19T15:05:49;1.30;79.90
27368;DHT22;14839;48.106;11.618;2023-01-19T15:08:29;1.30;80.00
27368;DHT22;14839;48.106;11.618;2023-01-19T15:10:55;1.20;80.50
27368;DHT22;14839;48.106;11.618;2023-01-19T15:13:24;1.30;81.10
27368;DHT22;14839;48.106;11.618;2023-01-19T15:15:50;1.20;81.10
27368;DHT22;14839;48.106;11.618;2023-01-19T15:18:20;1.10;80.20
27368;DHT22;14839;48.106;11.618;2023-01-19T15:20:46;1.00;78.20
27368;DHT22;14839;48.106;11.618;2023-01-19T15:23:12;1.00;79.30
27368;DHT22;14839;48.106;11.618;2023-01-19T15:25:38;0.90;80.00
27368;DHT22;14839;48.106;11.618;2023-01-19T15:28:12;0.90;80.50
27368;DHT22;14839;48.106;11.618;2023-01-19T15:30:38;0.90;81.20
27368;DHT22;14839;48.106;11.618;2023-01-19T15:33:04;0.90;80.90
27368;DHT22;14839;48.106;11.618;2023-01-19T15:35:30;0.90;82.00
27368;DHT22;14839;48.106;11.618;2023-01-19T15:37:56;0.80;81.70
27368;DHT22;14839;48.106;11.618;2023-01-19T15:40:22;0.90;82.40
27368;DHT22;14839;48.106;11.618;2023-01-19T15:42:48;0.80;82.60
27368;DHT22;14839;48.106;11.618;2023-01-19T15:47:55;0.80;82.60
27368;DHT22;14839;48.106;11.618;2023-01-19T15:50:21;0.80;80.90
27368;DHT22;14839;48.106;11.618;2023-01-19T15:52:47;0.80;81.10
27368;DHT22;14839;48.106;11.618;2023-01-19T15:55:13;0.70;82.70
27368;DHT22;14839;48.106;11.618;2023-01-19T15:57:40;0.70;84.20
27368;DHT22;14839;48.106;11.618;2023-01-19T16:00:07;0.60;85.00
27368;DHT22;14839;48.106;11.618;2023-01-19T16:02:34;0.60;84.70
27368;DHT22;14839;48.106;11.618;2023-01-19T16:05:00;0.60;85.60
27368;DHT22;14839;48.106;11.618;2023-01-19T16:07:25;0.60;86.20
27368;DHT22;14839;48.106;11.618;2023-01-19T16:09:51;0.50;85.70
27368;DHT22;14839;48.106;11.618;2023-01-19T16:12:16;0.60;85.90
27368;DHT22;14839;48.106;11.618;2023-01-19T16:14:42;0.60;86.50
27368;DHT22;14839;48.106;11.618;2023-01-19T16:17:08;0.50;86.20
27368;DHT22;14839;48.106;11.618;2023-01-19T16:19:33;0.40;86.60
27368;DHT22;14839;48.106;11.618;2023-01-19T16:21:59;0.40;86.90
27368;DHT22;14839;48.106;11.618;2023-01-19T16:24:24;0.40;86.80
27368;DHT22;14839;48.106;11.618;2023-01-19T16:26:50;0.30;86.90
27368;DHT22;14839;48.106;11.618;2023-01-19T16:29:16;0.30;87.70
27368;DHT22;14839;48.106;11.618;2023-01-19T16:31:43;0.30;87.50
27368;DHT22;14839;48.106;11.618;2023-01-19T16:34:09;0.40;88.00
27368;DHT22;14839;48.106;11.618;2023-01-19T16:36:37;0.30;87.50
27368;DHT22;14839;48.106;11.618;2023-01-19T16:39:06;0.30;87.10
27368;DHT22;14839;48.106;11.618;2023-01-19T16:41:33;0.30;87.10
27368;DHT22;14839;48.106;11.618;2023-01-19T16:43:59;0.30;87.70
27368;DHT22;14839;48.106;11.618;2023-01-19T16:46:27;0.30;86.90
27368;DHT22;14839;48.106;11.618;2023-01-19T16:49:00;0.30;86.90
27368;DHT22;14839;48.106;11.618;2023-01-19T16:51:26;0.30;87.70
27368;DHT22;14839;48.106;11.618;2023-01-19T16:53:52;0.30;87.20
27368;DHT22;14839;48.106;11.618;2023-01-19T16:56:18;0.30;87.40
27368;DHT22;14839;48.106;11.618;2023-01-19T16:58:44;0.20;87.80
27368;DHT22;14839;48.106;11.618;2023-01-19T17:01:15;0.20;87.50
27368;DHT22;14839;48.106;11.618;2023-01-19T17:03:41;0.20;87.50
27368;DHT22;14839;48.106;11.618;2023-01-19T17:06:09;0.30;88.00
27368;DHT22;14839;48.106;11.618;2023-01-19T17:08:35;0.20;88.00
27368;DHT22;14839;48.106;11.618;2023-01-19T17:11:11;0.20;88.00
27368;DHT22;14839;48.106;11.618;2023-01-19T17:13:37;0.20;88.40
27368;DHT22;14839;48.106;11.618;2023-01-19T17:16:03;0.10;88.90
27368;DHT22;14839;48.106;11.618;2023-01-19T17:18:32;0.20;87.70
27368;DHT22;14839;48.106;11.618;2023-01-19T17:21:03;0.20;87.10
27368;DHT22;14839;48.106;11.618;2023-01-19T17:23:45;0.20;86.50
27368;DHT22;14839;48.106;11.618;2023-01-19T17:26:11;0.20;86.50
27368;DHT22;14839;48.106;11.618;2023-01-19T17:28:37;0.10;86.50
27368;DHT22;14839;48.106;11.618;2023-01-19T17:31:04;0.10;86.30
27368;DHT22;14839;48.106;11.618;2023-01-19T17:33:30;0.10;86.20
27368;DHT22;14839;48.106;11.618;2023-01-19T17:36:04;0.10;86.80
27368;DHT22;14839;48.106;11.618;2023-01-19T17:38:30;0.10;86.90
27368;DHT22;14839;48.106;11.618;2023-01-19T17:40:55;0.00;86.60
27368;DHT22;14839;48.106;11.618;2023-01-19T17:43:21;0.00;87.10
27368;DHT22;14839;48.106;11.618;2023-01-19T17:45:46;0.00;87.10
27368;DHT22;14839;48.106;11.618;2023-01-19T17:48:12;0.00;86.90
27368;DHT22;14839;48.106;11.618;2023-01-19T17:50:38;0.00;87.10
27368;DHT22;14839;48.106;11.618;2023-01-19T17:53:04;0.00;87.20
27368;DHT22;14839;48.106;11.618;2023-01-19T17:55:33;-0.10;87.80
27368;DHT22;14839;48.106;11.618;2023-01-19T17:57:59;-0.10;88.10
27368;DHT22;14839;48.106;11.618;2023-01-19T18:00:26;-0.10;88.00
27368;DHT22;14839;48.106;11.618;2023-01-19T18:02:57;-0.10;88.30
27368;DHT22;14839;48.106;11.618;2023-01-19T18:05:23;-0.10;88.60
27368;DHT22;14839;48.106;11.618;2023-01-19T18:07:49;-0.10;88.60
27368;DHT22;14839;48.106;11.618;2023-01-19T18:10:15;-0.10;89.30
27368;DHT22;14839;48.106;11.618;2023-01-19T18:12:41;-0.20;89.20
27368;DHT22;14839;48.106;11.618;2023-01-19T18:15:07;-0.20;89.80
27368;DHT22;14839;48.106;11.618;2023-01-19T18:17:33;-0.20;90.20
27368;DHT22;14839;48.106;11.618;2023-01-19T18:19:59;-0.20;90.10
27368;DHT22;14839;48.106;11.618;2023-01-19T18:22:24;-0.20;89.50
27368;DHT22;14839;48.106;11.618;2023-01-19T18:24:50;-0.20;89.50
27368;DHT22;14839;48.106;11.618;2023-01-19T18:27:16;-0.20;89.80
27368;DHT22;14839;48.106;11.618;2023-01-19T18:29:42;-0.20;89.50
27368;DHT22;14839;48.106;11.618;2023-01-19T18:32:08;-0.20;89.50
27368;DHT22;14839;48.106;11.618;2023-01-19T18:34:34;-0.20;89.80
27368;DHT22;14839;48.106;11.618;2023-01-19T18:37:00;-0.20;89.60
27368;DHT22;14839;48.106;11.618;2023-01-19T18:39:25;-0.20;89.00
27368;DHT22;14839;48.106;11.618;2023-01-19T18:41:51;-0.10;88.70
27368;DHT22;14839;48.106;11.618;2023-01-19T18:44:16;-0.10;88.60
27368;DHT22;14839;48.106;11.618;2023-01-19T18:46:42;-0.10;88.40
27368;DHT22;14839;48.106;11.618;2023-01-19T18:49:08;-0.10;88.10
27368;DHT22;14839;48.106;11.618;2023-01-19T18:51:34;-0.10;88.10
27368;DHT22;14839;48.106;11.618;2023-01-19T18:54:01;-0.20;88.70
27368;DHT22;14839;48.106;11.618;2023-01-19T18:56:26;-0.10;88.40
27368;DHT22;14839;48.106;11.618;2023-01-19T18:58:52;-0.10;89.20
27368;DHT22;14839;48.106;11.618;2023-01-19T19:01:23;-0.10;89.20
27368;DHT22;14839;48.106;11.618;2023-01-19T19:03:50;-0.10;89.00
27368;DHT22;14839;48.106;11.618;2023-01-19T19:06:16;-0.10;89.00
27368;DHT22;14839;48.106;11.618;2023-01-19T19:08:48;-0.10;89.50
27368;DHT22;14839;48.106;11.618;2023-01-19T19:11:14;-0.20;89.60
27368;DHT22;14839;48.106;11.618;2023-01-19T19:13:41;-0.10;89.60
27368;DHT22;14839;48.106;11.618;2023-01-19T19:16:08;0.00;89.30
27368;DHT22;14839;48.106;11.618;2023-01-19T19:18:35;-0.10;88.70
27368;DHT22;14839;48.106;11.618;2023-01-19T19:21:17;-0.20;89.30
27368;DHT22;14839;48.106;11.618;2023-01-19T19:23:47;-0.20;90.10
27368;DHT22;14839;48.106;11.618;2023-01-19T19:26:13;-0.30;90.10
27368;DHT22;14839;48.106;11.618;2023-01-19T19:28:39;-0.30;90.10
27368;DHT22;14839;48.106;11.618;2023-01-19T19:31:17;-0.20;90.20
27368;DHT22;14839;48.106;11.618;2023-01-19T19:33:45;-0.20;90.10
27368;DHT22;14839;48.106;11.618;2023-01-19T19:36:10;-0.20;90.20
27368;DHT22;14839;48.106;11.618;2023-01-19T19:38:37;-0.30;90.50
27368;DHT22;14839;48.106;11.618;2023-01-19T19:41:13;-0.40;90.50
27368;DHT22;14839;48.106;11.618;2023-01-19T19:43:39;-0.40;90.60
27368;DHT22;14839;48.106;11.618;2023-01-19T19:46:07;-0.50;90.80
27368;DHT22;14839;48.106;11.618;2023-01-19T19:48:33;-0.50;91.00
27368;DHT22;14839;48.106;11.618;2023-01-19T19:51:06;-0.60;91.00
27368;DHT22;14839;48.106;11.618;2023-01-19T19:53:33;-0.60;91.10
27368;DHT22;14839;48.106;11.618;2023-01-19T19:56:01;-0.50;91.00
27368;DHT22;14839;48.106;11.618;2023-01-19T19:58:27;-0.60;91.20
27368;DHT22;14839;48.106;11.618;2023-01-19T20:00:53;-0.60;91.20
27368;DHT22;14839;48.106;11.618;2023-01-19T20:03:20;-0.50;91.30
27368;DHT22;14839;48.106;11.618;2023-01-19T20:05:46;-0.50;91.10
27368;DHT22;14839;48.106;11.618;2023-01-19T20:08:12;-0.50;91.00
27368;DHT22;14839;48.106;11.618;2023-01-19T20:10:38;-0.50;90.90
27368;DHT22;14839;48.106;11.618;2023-01-19T20:13:04;-0.40;90.80
27368;DHT22;14839;48.106;11.618;2023-01-19T20:15:30;-0.40;90.60
27368;DHT22;14839;48.106;11.618;2023-01-19T20:17:56;-0.40;90.60
27368;DHT22;14839;48.106;11.618;2023-01-19T20:20:23;-0.50;90.70
27368;DHT22;14839;48.106;11.618;2023-01-19T20:22:49;-0.60;91.20
27368;DHT22;14839;48.106;11.618;2023-01-19T20:25:14;-0.70;91.60
27368;DHT22;14839;48.106;11.618;2023-01-19T20:27:40;-0.70;92.10
27368;DHT22;14839;48.106;11.618;2023-01-19T20:30:06;-0.70;92.70
27368;DHT22;14839;48.106;11.618;2023-01-19T20:32:32;-0.80;92.80
27368;DHT22;14839;48.106;11.618;2023-01-19T20:34:58;-0.80;92.80
27368;DHT22;14839;48.106;11.618;2023-01-19T20:37:24;-0.90;92.90
27368;DHT22;14839;48.106;11.618;2023-01-19T20:39:50;-0.80;93.20
27368;DHT22;14839;48.106;11.618;2023-01-19T20:42:16;-0.90;93.30
27368;DHT22;14839;48.106;11.618;2023-01-19T20:44:41;-0.90;93.50
27368;DHT22;14839;48.106;11.618;2023-01-19T20:47:08;-0.90;93.80
27368;DHT22;14839;48.106;11.618;2023-01-19T20:49:36;-1.00;94.10
27368;DHT22;14839;48.106;11.618;2023-01-19T20:52:02;-1.00;94.40
27368;DHT22;14839;48.106;11.618;2023-01-19T20:54:28;-1.00;94.30
27368;DHT22;14839;48.106;11.618;2023-01-19T20:56:55;-1.10;94.20
27368;DHT22;14839;48.106;11.618;2023-01-19T20:59:21;-1.10;94.20
27368;DHT22;14839;48.106;11.618;2023-01-19T21:01:47;-1.10;94.40
27368;DHT22;14839;48.106;11.618;2023-01-19T21:04:13;-1.20;94.60
27368;DHT22;14839;48.106;11.618;2023-01-19T21:06:40;-1.30;94.60
27368;DHT22;14839;48.106;11.618;2023-01-19T21:09:07;-1.30;94.60
27368;DHT22;14839;48.106;11.618;2023-01-19T21:11:34;-1.30;94.60
27368;DHT22;14839;48.106;11.618;2023-01-19T21:14:00;-1.40;94.60
27368;DHT22;14839;48.106;11.618;2023-01-19T21:16:28;-1.40;94.60
27368;DHT22;14839;48.106;11.618;2023-01-19T21:18:53;-1.50;94.60
27368;DHT22;14839;48.106;11.618;2023-01-19T21:21:19;-1.50;94.60
27368;DHT22;14839;48.106;11.618;2023-01-19T21:23:45;-1.40;94.60
27368;DHT22;14839;48.106;11.618;2023-01-19T21:26:12;-1.40;94.60
27368;DHT22;14839;48.106;11.618;2023-01-19T21:28:38;-1.50;94.60
27368;DHT22;14839;48.106;11.618;2023-01-19T21:31:06;-1.50;94.60
27368;DHT22;14839;48.106;11.618;2023-01-19T21:33:32;-1.50;94.60
27368;DHT22;14839;48.106;11.618;2023-01-19T21:35:58;-1.50;94.60